createdAt,value
2023-05-11T00:02:19.594Z,26.30
2023-05-11T00:07:23.726Z,27.23
2023-05-11T00:12:26.462Z,24.38
2023-05-11T00:17:29.292Z,24.60
2023-05-11T00:22:33.406Z,24.75
2023-05-11T00:27:36.128Z,25.02
2023-05-11T00:32:38.896Z,25.05
2023-05-11T00:37:43.007Z,23.08
2023-05-11T00:42:45.822Z,24.33
2023-05-11T00:47:48.631Z,26.33
2023-05-11T00:52:52.853Z,29.77
2023-05-11T00:57:55.657Z,32.22
2023-05-11T01:02:59.565Z,34.40
2023-05-11T01:08:09.779Z,33.45
2023-05-11T01:13:23.000Z,40.30
2023-05-11T01:18:31.792Z,34.55
2023-05-11T01:24:06.477Z,38.97
2023-05-11T01:29:42.105Z,42.17
2023-05-11T01:34:48.263Z,38.45
2023-05-11T01:39:55.302Z,35.58
2023-05-11T01:44:59.234Z,35.10
2023-05-11T01:50:05.887Z,39.85
2023-05-11T01:55:11.267Z,38.75
2023-05-11T02:00:17.204Z,35.85
2023-05-11T02:05:24.900Z,36.72
2023-05-11T02:10:28.956Z,32.10
2023-05-11T02:15:32.437Z,36.17
2023-05-11T02:20:37.724Z,33.20
2023-05-11T02:25:41.408Z,39.47
2023-05-11T02:30:51.010Z,43.80
2023-05-11T02:35:57.165Z,39.97
2023-05-11T02:41:07.229Z,42.97
2023-05-11T02:46:14.323Z,42.92
2023-05-11T02:51:23.285Z,45.53
2023-05-11T02:56:28.226Z,47.58
2023-05-11T03:01:32.870Z,45.33
2023-05-11T03:06:38.253Z,47.25
2023-05-11T03:11:45.753Z,37.58
2023-05-11T03:16:49.777Z,38.28
2023-05-11T03:21:55.384Z,39.13
2023-05-11T03:26:58.932Z,27.85
2023-05-11T03:32:04.175Z,28.27
2023-05-11T03:37:15.116Z,26.33
2023-05-11T03:42:21.174Z,30.53
2023-05-11T03:47:26.904Z,25.98
2023-05-11T03:52:32.752Z,23.45
2023-05-11T03:57:36.098Z,26.38
2023-05-11T04:02:39.063Z,24.27
2023-05-11T04:07:43.345Z,19.65
2023-05-11T04:12:46.208Z,19.02
2023-05-11T04:17:49.112Z,23.05
2023-05-11T04:22:53.348Z,19.70
2023-05-11T04:27:56.259Z,21.13
2023-05-11T04:32:59.201Z,30.30
2023-05-11T04:38:03.482Z,25.10
2023-05-11T04:43:06.604Z,26.45
2023-05-11T04:48:09.560Z,20.85
2023-05-11T04:53:13.804Z,29.38
2023-05-11T04:58:16.840Z,23.70
2023-05-11T05:03:19.848Z,22.45
2023-05-11T05:08:24.083Z,20.63
2023-05-11T05:13:26.940Z,19.48
2023-05-11T05:18:29.951Z,20.13
2023-05-11T05:23:34.405Z,18.00
2023-05-11T05:28:39.644Z,17.70
2023-05-11T05:33:42.565Z,17.55
2023-05-11T05:39:03.777Z,16.00
2023-05-11T05:44:08.676Z,19.67
2023-05-11T05:49:11.681Z,18.50
2023-05-11T05:54:16.112Z,18.80
2023-05-11T05:59:21.080Z,21.27
2023-05-11T06:04:24.177Z,19.88
2023-05-11T06:09:28.422Z,16.63
2023-05-11T06:14:31.626Z,19.85
2023-05-11T06:19:34.828Z,20.05
2023-05-11T06:24:39.187Z,18.25
2023-05-11T06:29:42.575Z,17.45
2023-05-11T06:34:45.486Z,16.55
2023-05-11T06:39:51.251Z,16.95
2023-05-11T06:44:54.350Z,18.83
2023-05-11T06:49:59.328Z,18.17
2023-05-11T06:55:04.501Z,19.95
2023-05-11T07:00:08.511Z,15.65
2023-05-11T07:05:12.222Z,13.48
2023-05-11T07:10:16.587Z,14.45
2023-05-11T07:15:19.549Z,14.30
2023-05-11T07:20:22.403Z,14.95
2023-05-11T07:25:26.826Z,13.95
2023-05-11T07:30:29.841Z,13.88
2023-05-11T07:35:32.654Z,15.68
2023-05-11T07:40:37.478Z,15.77
2023-05-11T07:45:40.537Z,13.95
2023-05-11T07:50:43.666Z,13.85
2023-05-11T07:55:48.079Z,12.57
2023-05-11T08:00:50.845Z,14.70
2023-05-11T08:05:53.707Z,13.05
2023-05-11T08:10:58.111Z,12.75
2023-05-11T08:16:00.933Z,15.82
2023-05-11T08:21:03.831Z,15.27
2023-05-11T08:26:08.107Z,13.05
2023-05-11T08:31:10.940Z,14.57
2023-05-11T08:36:13.941Z,12.88
2023-05-11T08:41:18.517Z,14.13
2023-05-11T08:46:27.138Z,15.13
2023-05-11T08:51:30.621Z,16.60
2023-05-11T08:56:37.074Z,21.88
2023-05-11T09:01:42.363Z,15.60
2023-05-11T09:06:45.370Z,17.00
2023-05-11T09:11:50.541Z,18.23
2023-05-11T09:16:53.374Z,19.23
2023-05-11T09:21:56.472Z,15.65
2023-05-11T09:27:10.587Z,14.15
2023-05-11T09:32:13.356Z,14.45
2023-05-11T09:37:20.144Z,13.70
2023-05-11T09:42:24.433Z,13.68
2023-05-11T09:47:27.622Z,14.30
2023-05-11T09:52:30.682Z,12.63
2023-05-11T09:57:34.790Z,15.35
2023-05-11T10:02:37.893Z,18.85
2023-05-11T10:07:40.934Z,17.83
2023-05-11T10:12:45.392Z,15.27
2023-05-11T10:17:49.380Z,19.20
2023-05-11T10:22:53.731Z,16.50
2023-05-11T10:27:58.692Z,17.60
2023-05-11T10:33:02.075Z,15.57
2023-05-11T10:38:05.876Z,17.60
2023-05-11T10:43:35.829Z,16.98
2023-05-11T10:49:04.095Z,18.25
2023-05-11T10:54:30.909Z,19.17
2023-05-11T11:00:14.258Z,19.42
2023-05-11T11:05:34.195Z,20.42
2023-05-11T11:10:39.271Z,16.88
2023-05-11T11:16:13.911Z,14.98
2023-05-11T11:21:43.247Z,17.70
2023-05-11T11:26:50.603Z,19.23
2023-05-11T11:31:54.899Z,22.92
2023-05-11T11:37:04.987Z,14.20
2023-05-11T11:42:09.341Z,14.07
2023-05-11T11:47:14.652Z,12.95
2023-05-11T11:52:34.504Z,14.02
2023-05-11T11:57:44.155Z,15.43
2023-05-11T12:02:48.414Z,14.57
2023-05-11T12:07:52.596Z,15.55
2023-05-11T12:12:59.226Z,14.77
2023-05-11T12:18:04.143Z,14.40
2023-05-11T12:23:07.063Z,14.05
2023-05-11T12:28:12.428Z,15.10
2023-05-11T12:33:20.281Z,12.73
2023-05-11T12:38:23.590Z,12.45
2023-05-11T12:43:26.666Z,12.40
2023-05-11T12:48:32.979Z,15.43
2023-05-11T12:53:38.056Z,11.52
2023-05-11T12:58:44.066Z,11.02
2023-05-11T13:03:49.264Z,11.10
2023-05-11T13:08:52.440Z,11.18
2023-05-11T13:13:57.048Z,11.10
2023-05-11T13:19:02.599Z,11.40
2023-05-11T13:24:06.211Z,10.95
2023-05-11T13:29:11.560Z,10.05
2023-05-11T13:34:16.474Z,11.35
2023-05-11T13:39:19.524Z,10.43
2023-05-11T13:44:22.272Z,11.65
2023-05-11T13:49:27.472Z,11.52
2023-05-11T13:54:31.764Z,12.55
2023-05-11T13:59:34.920Z,12.18
2023-05-11T14:04:39.977Z,11.30
2023-05-11T14:09:43.720Z,10.95
2023-05-11T14:14:46.563Z,10.30
2023-05-11T14:19:50.681Z,11.48
2023-05-11T14:24:53.390Z,9.57
2023-05-11T14:29:56.186Z,10.75
2023-05-11T14:35:00.532Z,13.80
2023-05-11T14:40:03.522Z,10.55
2023-05-11T14:45:07.723Z,9.82
2023-05-11T14:50:12.337Z,11.05
2023-05-11T14:55:15.102Z,13.15
2023-05-11T15:00:18.807Z,12.85
2023-05-11T15:05:22.942Z,12.63
2023-05-11T15:10:25.855Z,10.88
2023-05-11T15:15:28.834Z,10.65
2023-05-11T15:20:34.595Z,14.32
2023-05-11T15:25:37.828Z,10.25
2023-05-11T15:30:41.605Z,13.40
2023-05-11T15:35:45.809Z,11.48
2023-05-11T15:40:48.764Z,12.57
2023-05-11T15:45:51.834Z,14.20
2023-05-11T15:50:56.116Z,13.63
2023-05-11T15:55:59.035Z,14.40
2023-05-11T16:01:02.076Z,13.35
2023-05-11T16:06:07.243Z,12.73
2023-05-11T16:11:10.088Z,13.10
2023-05-11T16:16:13.293Z,12.23
2023-05-11T16:21:17.564Z,13.35
2023-05-11T16:26:20.447Z,12.02
2023-05-11T16:31:23.793Z,12.85
2023-05-11T16:36:29.428Z,15.82
2023-05-11T16:41:32.457Z,15.63
2023-05-11T16:46:35.366Z,16.67
2023-05-11T16:51:41.608Z,17.30
2023-05-11T16:56:44.550Z,16.70
2023-05-11T17:01:47.535Z,19.73
2023-05-11T17:06:52.157Z,19.05
2023-05-11T17:11:57.381Z,18.60
2023-05-11T17:17:00.257Z,17.60
2023-05-11T17:22:04.681Z,21.55
2023-05-11T17:27:07.567Z,20.73
2023-05-11T17:32:10.524Z,21.52
2023-05-11T17:37:30.606Z,24.65
2023-05-11T17:42:35.733Z,22.90
2023-05-11T17:47:38.729Z,23.63
2023-05-11T17:52:45.310Z,27.63
2023-05-11T17:57:48.456Z,26.38
2023-05-11T18:02:51.533Z,25.27
2023-05-11T18:07:56.274Z,23.45
2023-05-11T18:13:01.678Z,28.83
2023-05-11T18:18:04.629Z,26.55
2023-05-11T18:23:08.831Z,28.70
2023-05-11T18:28:11.693Z,26.05
2023-05-11T18:33:14.561Z,28.40
2023-05-11T18:38:19.237Z,29.48
2023-05-11T18:43:22.117Z,30.27
2023-05-11T18:48:24.964Z,27.35
2023-05-11T18:53:29.434Z,28.95
2023-05-11T18:58:32.306Z,26.02
2023-05-11T19:03:36.146Z,24.70
2023-05-11T19:08:40.382Z,26.63
2023-05-11T19:13:43.874Z,22.98
2023-05-11T19:18:46.662Z,25.60
2023-05-11T19:23:50.994Z,23.77
2023-05-11T19:28:53.833Z,23.50
2023-05-11T19:33:56.628Z,24.30
2023-05-11T19:39:00.807Z,22.45
2023-05-11T19:44:03.761Z,18.88
2023-05-11T19:49:06.640Z,20.48
2023-05-11T19:54:11.395Z,19.63
2023-05-11T19:59:20.569Z,21.00
2023-05-11T20:04:31.223Z,22.25
2023-05-11T20:09:38.070Z,24.58
2023-05-11T20:14:42.292Z,21.48
2023-05-11T20:19:45.163Z,20.70
2023-05-11T20:24:49.430Z,17.88
2023-05-11T20:29:54.729Z,19.05
2023-05-11T20:34:57.595Z,16.33
2023-05-11T20:40:02.146Z,16.63
2023-05-11T20:45:07.361Z,14.80
2023-05-11T20:50:10.921Z,14.63
2023-05-11T20:55:16.025Z,13.48
2023-05-11T21:00:19.039Z,14.57
2023-05-11T21:05:23.558Z,15.98
2023-05-11T21:10:29.671Z,19.05
2023-05-11T21:15:32.543Z,13.15
2023-05-11T21:20:35.285Z,10.65
2023-05-11T21:25:39.414Z,16.38
2023-05-11T21:30:42.347Z,16.33
2023-05-11T21:35:45.244Z,15.23
2023-05-11T21:40:53.108Z,15.30
2023-05-11T21:45:56.045Z,15.57
2023-05-11T21:50:58.832Z,20.13
2023-05-11T21:56:02.970Z,18.63
2023-05-11T22:01:05.895Z,16.65
2023-05-11T22:06:08.970Z,16.85
2023-05-11T22:11:13.108Z,19.25
2023-05-11T22:16:16.227Z,19.98
2023-05-11T22:21:19.010Z,18.88
2023-05-11T22:26:23.133Z,19.98
2023-05-11T22:31:26.779Z,20.73
2023-05-11T22:36:29.688Z,20.90
2023-05-11T22:41:33.921Z,20.65
2023-05-11T22:46:36.685Z,21.20
2023-05-11T22:51:39.470Z,23.20
2023-05-11T22:56:44.102Z,23.70
2023-05-11T23:01:47.389Z,19.90
2023-05-11T23:06:50.363Z,16.92
2023-05-11T23:11:54.639Z,15.35
2023-05-11T23:16:57.475Z,13.77
2023-05-11T23:22:00.236Z,14.77
2023-05-11T23:27:04.752Z,13.13
2023-05-11T23:32:08.674Z,13.90
2023-05-11T23:37:11.563Z,13.90
2023-05-11T23:42:15.727Z,10.85
2023-05-11T23:47:18.539Z,13.05
2023-05-11T23:52:21.841Z,10.20
2023-05-11T23:57:26.122Z,9.48
